Terminal Aerodrome Forecast
Issued by NWS

Home | Current Version | Previous Version | Text Only | Print | Product List | Glossary On
Versions: 1 2 3 4 5 6 7 8 9 10 11 12 13 14
000
FTUS44 KLIX 251739
TAFGPT
TAF
KGPT 251739Z 2518/2618 14013KT P6SM BKN030
     FM260200 15007KT P6SM FEW020
     FM261500 13010KT P6SM BKN025=

USA.gov is the U.S. government's official web portal to all federal, state and local government web resources and services.